Time;durP1;ratioP1;P1;durP2;ratioP2;P2;SDS_P1;SDS_P2;PMS_P1;PMS_P2;Temp;Humidity;BMP_temperature;BMP_pressure;BME280_temperature;BME280_humidity;BME280_pressure;Samples;Min_cycle;Max_cycle;Signal;HPM_P1;HPM_P2
2024/04/10 00:00:50;;;;;;;11.13;1.50;;;;;;;17.57;40.58;101841.72;5367053;26;19998;-64
2024/04/10 00:03:18;;;;;;;9.57;1.58;;;;;;;17.52;40.08;101847.56;5395634;26;19999;-64
2024/04/10 00:05:44;;;;;;;10.43;1.15;;;;;;;17.49;40.38;101847.84;5425041;26;20024;-64
2024/04/10 00:08:09;;;;;;;5.88;1.63;;;;;;;17.48;40.22;101851.56;5423657;26;20041;-64
2024/04/10 00:10:36;;;;;;;6.47;1.35;;;;;;;17.50;39.97;101857.69;5423039;26;19999;-64
2024/04/10 00:13:02;;;;;;;11.77;2.00;;;;;;;17.48;40.45;101857.84;5422720;26;20011;-64
2024/04/10 00:15:27;;;;;;;10.68;2.83;;;;;;;17.48;40.20;101867.81;5454754;26;20337;-64
2024/04/10 00:17:53;;;;;;;5.53;1.52;;;;;;;17.44;39.96;101866.41;5454497;26;20010;-64
2024/04/10 00:20:18;;;;;;;8.48;2.55;;;;;;;17.43;40.53;101875.53;5357052;26;20003;-63
2024/04/10 00:22:44;;;;;;;6.38;1.67;;;;;;;17.42;40.53;101873.81;5358071;26;20354;-63
2024/04/10 00:25:09;;;;;;;9.65;1.40;;;;;;;17.37;40.55;101881.53;5358083;26;20003;-64
2024/04/10 00:27:35;;;;;;;12.25;1.42;;;;;;;17.39;40.02;101882.25;5358305;26;20015;-64
2024/04/10 00:30:00;;;;;;;11.00;2.72;;;;;;;17.34;40.75;101882.69;5387228;26;20014;-64
2024/04/10 00:32:26;;;;;;;11.05;1.77;;;;;;;17.31;40.26;101880.28;5358203;26;19999;-64
2024/04/10 00:34:51;;;;;;;10.50;1.50;;;;;;;17.34;40.80;101882.69;5357759;26;20537;-64
2024/04/10 00:37:17;;;;;;;13.38;2.03;;;;;;;17.32;40.58;101882.00;5387019;26;20443;-64
2024/04/10 00:39:43;;;;;;;8.30;1.08;;;;;;;17.29;40.67;101884.13;5386908;26;20003;-64
2024/04/10 00:42:08;;;;;;;13.13;1.98;;;;;;;17.26;40.75;101889.84;5358059;26;20466;-65
2024/04/10 00:44:47;;;;;;;12.20;1.88;;;;;;;17.26;40.64;101903.38;5386709;26;19999;-64
2024/04/10 00:47:12;;;;;;;15.27;1.98;;;;;;;17.25;40.55;101909.81;5329116;26;20010;-64
2024/04/10 00:49:37;;;;;;;9.23;1.92;;;;;;;17.23;40.58;101901.81;5357954;26;20027;-64
2024/04/10 00:52:03;;;;;;;9.25;1.65;;;;;;;17.24;40.54;101899.97;5409002;26;20021;-64
2024/04/10 00:54:31;;;;;;;10.93;1.52;;;;;;;17.22;40.24;101915.53;5452657;26;19999;-63
2024/04/10 00:56:57;;;;;;;8.98;1.42;;;;;;;17.20;40.74;101912.06;5423270;26;19999;-65
2024/04/10 00:59:23;;;;;;;10.15;1.77;;;;;;;17.19;40.72;101916.66;5393146;26;20017;-64
2024/04/10 01:01:48;;;;;;;9.50;2.50;;;;;;;17.17;40.79;101915.94;5392787;26;20002;-63
2024/04/10 01:04:14;;;;;;;7.68;1.35;;;;;;;17.14;40.65;101915.41;5454128;26;20017;-64
2024/04/10 01:06:39;;;;;;;10.68;1.70;;;;;;;17.13;40.78;101909.13;5363475;26;20465;-63
2024/04/10 01:09:05;;;;;;;6.55;1.65;;;;;;;17.15;40.93;101917.09;5364013;26;20387;-64
2024/04/10 01:11:30;;;;;;;8.90;0.90;;;;;;;17.11;40.77;101923.81;5422107;26;20009;-64
2024/04/10 01:13:56;;;;;;;10.88;1.40;;;;;;;17.12;40.97;101930.91;5454133;26;19998;-64
2024/04/10 01:16:21;;;;;;;5.65;1.20;;;;;;;17.09;40.72;101928.47;5420924;26;19995;-64
2024/04/10 01:18:47;;;;;;;14.40;2.70;;;;;;;17.06;40.99;101931.47;5393379;26;20006;-64
2024/04/10 01:21:13;;;;;;;10.15;1.40;;;;;;;17.04;40.72;101936.19;5393246;26;20323;-64
2024/04/10 01:23:38;;;;;;;3.47;1.15;;;;;;;17.01;40.85;101934.63;5422746;26;20075;-64
2024/04/10 01:26:04;;;;;;;9.80;1.88;;;;;;;16.99;40.65;101935.78;5454297;26;20025;-64
2024/04/10 01:28:29;;;;;;;6.78;1.60;;;;;;;16.98;41.11;101934.06;5393190;26;19999;-64
2024/04/10 01:30:55;;;;;;;10.00;2.47;;;;;;;16.97;41.34;101943.19;5364451;26;20007;-64
2024/04/10 01:33:20;;;;;;;8.70;1.33;;;;;;;16.95;41.18;101937.03;5422807;26;20355;-64
2024/04/10 01:35:46;;;;;;;6.60;1.38;;;;;;;16.95;40.98;101945.16;5422558;26;20459;-64
2024/04/10 01:38:11;;;;;;;4.78;2.85;;;;;;;16.93;41.41;101953.44;5454022;26;20512;-64
2024/04/10 01:40:37;;;;;;;8.43;1.40;;;;;;;16.89;41.27;101950.16;5422286;26;20079;-64
2024/04/10 01:43:02;;;;;;;11.48;3.72;;;;;;;16.90;40.99;101959.13;5421793;26;20003;-64
2024/04/10 01:45:28;;;;;;;7.05;1.45;;;;;;;16.88;41.40;101956.59;5392528;26;19995;-64
2024/04/10 01:47:53;;;;;;;9.00;1.80;;;;;;;16.83;40.93;101956.13;5453680;26;19999;-64
2024/04/10 01:50:19;;;;;;;9.55;1.70;;;;;;;16.82;41.24;101970.69;5421545;26;20082;-65
2024/04/10 01:52:45;;;;;;;8.10;1.88;;;;;;;16.81;41.37;101970.81;5362746;26;20012;-64
2024/04/10 01:55:11;;;;;;;8.52;1.55;;;;;;;16.79;41.59;101978.22;5421775;26;20002;-64
2024/04/10 01:57:36;;;;;;;10.85;1.63;;;;;;;16.74;41.17;101980.50;5421489;26;20442;-64
2024/04/10 02:00:02;;;;;;;8.07;1.67;;;;;;;16.74;41.39;101986.78;5453293;26;20004;-65
2024/04/10 02:02:36;;;;;;;13.57;1.50;;;;;;;16.72;41.51;101980.63;5453359;26;19995;-64
2024/04/10 02:05:01;;;;;;;6.97;2.10;;;;;;;16.69;41.57;101983.63;5362628;26;20006;-64
2024/04/10 02:07:26;;;;;;;14.05;1.95;;;;;;;16.73;41.50;101995.00;5421294;26;20010;-64
2024/04/10 02:09:52;;;;;;;9.00;1.80;;;;;;;16.67;41.93;101985.59;5421918;26;20010;-64
2024/04/10 02:12:17;;;;;;;7.28;1.45;;;;;;;16.68;41.12;101995.44;5453032;26;19995;-64
2024/04/10 02:14:43;;;;;;;9.52;1.70;;;;;;;16.67;41.36;101996.44;5421495;26;20006;-64
2024/04/10 02:17:09;;;;;;;8.60;1.80;;;;;;;16.67;41.44;102003.69;5421749;26;19999;-64
2024/04/10 02:19:34;;;;;;;11.82;2.70;;;;;;;16.67;41.65;102006.38;5392010;26;20011;-64
2024/04/10 02:22:00;;;;;;;8.68;1.10;;;;;;;16.64;41.50;102012.06;5421456;26;20006;-64
2024/04/10 02:24:25;;;;;;;10.32;2.20;;;;;;;16.63;41.37;102013.97;5453599;26;20009;-64
2024/04/10 02:26:51;;;;;;;9.05;1.58;;;;;;;16.61;42.10;102010.50;5454365;26;20006;-63
2024/04/10 02:29:17;;;;;;;11.77;1.90;;;;;;;16.59;41.61;102020.63;5456549;26;20006;-64
2024/04/10 02:31:42;;;;;;;14.18;1.60;;;;;;;16.58;42.00;102018.91;5395062;26;19998;-64
2024/04/10 02:34:08;;;;;;;14.65;2.42;;;;;;;16.57;41.80;102022.63;5394666;26;20006;-64
2024/04/10 02:36:34;;;;;;;8.98;1.25;;;;;;;16.55;41.83;102034.56;5395202;26;19995;-64
2024/04/10 02:38:59;;;;;;;8.50;1.48;;;;;;;16.54;41.78;102038.25;5388358;26;20461;-64
2024/04/10 02:41:25;;;;;;;10.43;2.50;;;;;;;16.49;41.98;102040.50;5389061;26;20011;-64
2024/04/10 02:43:50;;;;;;;9.68;1.08;;;;;;;16.50;41.42;102045.75;5388586;26;20096;-65
2024/04/10 02:46:16;;;;;;;6.78;1.30;;;;;;;16.50;41.54;102053.03;5389273;26;20015;-64
2024/04/10 02:48:43;;;;;;;5.63;1.40;;;;;;;16.48;41.93;102052.31;5394913;26;20007;-64
2024/04/10 02:51:08;;;;;;;8.52;1.35;;;;;;;16.45;41.75;102058.84;5394613;26;20439;-65
2024/04/10 02:53:34;;;;;;;9.63;1.73;;;;;;;16.42;41.77;102069.94;5423754;26;20031;-65
2024/04/10 02:55:59;;;;;;;6.68;1.30;;;;;;;16.43;42.05;102078.91;5424099;26;20453;-65
2024/04/10 02:58:25;;;;;;;15.32;2.53;;;;;;;16.39;42.09;102086.44;5394829;26;20075;-65
2024/04/10 03:00:52;;;;;;;11.05;1.92;;;;;;;16.36;42.01;102089.41;5424241;26;20074;-64
2024/04/10 03:03:18;;;;;;;7.95;1.55;;;;;;;16.30;42.27;102084.56;5365460;26;20003;-64
2024/04/10 03:05:46;;;;;;;9.73;1.77;;;;;;;16.31;41.82;102094.38;5394587;26;20443;-64
2024/04/10 03:08:11;;;;;;;6.75;1.55;;;;;;;16.29;42.25;102089.13;5424514;26;20004;-64
2024/04/10 03:10:38;;;;;;;9.48;1.60;;;;;;;16.30;42.07;102098.09;5423784;26;20006;-66
2024/04/10 03:13:04;;;;;;;5.43;1.33;;;;;;;16.28;41.95;102102.75;5423694;26;19999;-64
2024/04/10 03:15:30;;;;;;;11.50;2.20;;;;;;;16.25;42.02;102103.00;5394429;26;20078;-64
2024/04/10 03:17:56;;;;;;;4.22;2.00;;;;;;;16.23;42.35;102094.19;5394272;26;20009;-64
2024/04/10 03:20:21;;;;;;;11.40;1.80;;;;;;;16.22;42.19;102103.28;5423797;26;20003;-65
2024/04/10 03:22:47;;;;;;;6.15;1.48;;;;;;;16.20;42.60;102105.28;5424327;26;20015;-64
2024/04/10 03:25:13;;;;;;;9.18;1.95;;;;;;;16.17;42.38;102117.22;5394434;26;20356;-64
2024/04/10 03:27:42;;;;;;;14.10;1.88;;;;;;;16.17;42.41;102124.47;5423686;26;19999;-64
2024/04/10 03:30:09;;;;;;;12.63;2.00;;;;;;;16.11;42.42;102117.75;5423553;26;20361;-64
2024/04/10 03:32:34;;;;;;;8.68;1.63;;;;;;;16.08;42.60;102117.19;5393716;26;20458;-64
2024/04/10 03:35:00;;;;;;;4.47;1.38;;;;;;;16.07;42.64;102126.25;5393843;26;20003;-64
2024/04/10 03:37:26;;;;;;;11.73;1.48;;;;;;;16.07;42.64;102132.53;5393996;26;20003;-64
2024/04/10 03:39:52;;;;;;;4.78;1.92;;;;;;;16.02;42.73;102123.09;5392322;26;19999;-64
2024/04/10 03:42:19;;;;;;;11.15;1.60;;;;;;;15.99;42.38;102129.63;5454924;26;19999;-64
2024/04/10 03:44:44;;;;;;;9.98;2.38;;;;;;;16.00;42.56;102133.16;5393757;26;20431;-64
2024/04/10 03:47:10;;;;;;;10.88;1.70;;;;;;;16.00;42.77;102142.16;5455366;26;20048;-64
2024/04/10 03:49:35;;;;;;;9.63;1.38;;;;;;;15.98;42.72;102143.28;5423720;26;20095;-64
2024/04/10 03:52:01;;;;;;;10.45;1.80;;;;;;;15.99;42.44;102145.84;5423588;26;19998;-64
2024/04/10 03:54:26;;;;;;;7.00;1.65;;;;;;;16.00;42.46;102149.38;5393362;26;20003;-64
2024/04/10 03:56:53;;;;;;;4.30;1.33;;;;;;;16.00;43.12;102147.56;5393437;26;19998;-64
2024/04/10 03:59:19;;;;;;;8.20;1.70;;;;;;;15.97;42.69;102150.50;5455160;26;20002;-64
2024/04/10 04:01:45;;;;;;;13.05;1.23;;;;;;;15.97;42.81;102160.50;5393737;26;20447;-64
2024/04/10 04:04:10;;;;;;;12.57;1.98;;;;;;;15.98;42.75;102167.59;5394125;26;20083;-64
2024/04/10 04:06:36;;;;;;;8.68;2.20;;;;;;;15.96;42.96;102173.13;5455125;26;20079;-64
2024/04/10 04:09:02;;;;;;;9.25;2.50;;;;;;;15.96;43.06;102172.28;5424203;26;19999;-65
2024/04/10 04:11:28;;;;;;;7.00;1.98;;;;;;;15.95;43.06;102170.56;5394463;26;20038;-66
2024/04/10 04:13:53;;;;;;;9.68;2.08;;;;;;;15.98;42.80;102183.81;5394232;26;20013;-65
2024/04/10 04:16:19;;;;;;;7.47;1.60;;;;;;;15.99;43.25;102188.25;5423195;26;20003;-64
2024/04/10 04:18:45;;;;;;;10.07;2.40;;;;;;;16.01;43.11;102192.53;5393525;26;20003;-64
2024/04/10 04:21:11;;;;;;;12.48;2.22;;;;;;;16.05;43.30;102203.94;5393722;26;20452;-65
2024/04/10 04:23:36;;;;;;;13.63;1.83;;;;;;;16.05;42.99;102195.81;5423111;26;20003;-64
2024/04/10 04:26:03;;;;;;;7.55;1.65;;;;;;;16.10;43.68;102210.66;5423023;26;20370;-64
2024/04/10 04:28:28;;;;;;;13.93;2.30;;;;;;;16.13;43.05;102214.94;5454576;26;20014;-65
2024/04/10 04:30:54;;;;;;;5.30;1.33;;;;;;;16.16;43.50;102220.94;5422996;26;19999;-64
2024/04/10 04:33:19;;;;;;;7.60;1.33;;;;;;;16.19;43.36;102220.66;5392852;26;20006;-64
2024/04/10 04:35:45;;;;;;;10.52;1.40;;;;;;;16.20;43.33;102222.41;5393112;26;20436;-64
2024/04/10 04:38:10;;;;;;;11.23;1.38;;;;;;;16.24;43.05;102233.81;5393214;26;20008;-64
2024/04/10 04:40:36;;;;;;;7.63;2.30;;;;;;;16.26;43.61;102234.53;5422470;26;20010;-65
2024/04/10 04:43:09;;;;;;;5.60;1.92;;;;;;;16.27;43.14;102242.50;5454480;26;20009;-64
2024/04/10 04:45:35;;;;;;;;;;;;;;;16.27;43.12;102247.06;5395095;26;20003;-64
2024/04/10 04:48:01;;;;;;;10.48;1.60;;;;;;;16.25;43.54;102254.44;5422582;26;19952;-64
2024/04/10 04:50:27;;;;;;;12.23;1.90;;;;;;;16.24;43.18;102259.00;5423414;26;20064;-64
2024/04/10 04:52:52;;;;;;;12.45;1.85;;;;;;;16.26;42.96;102257.03;5422851;26;19994;-64
2024/04/10 04:55:18;;;;;;;10.73;2.05;;;;;;;16.26;43.50;102265.13;5393269;26;20064;-64
2024/04/10 04:57:44;;;;;;;8.85;1.80;;;;;;;16.29;43.10;102272.13;5422825;26;20010;-64
2024/04/10 05:00:14;;;;;;;15.13;1.50;;;;;;;16.28;43.36;102276.66;5422179;26;20006;-64
2024/04/10 05:02:43;;;;;;;8.45;1.58;;;;;;;16.28;43.18;102270.41;5422370;26;20009;-64
2024/04/10 05:05:15;;;;;;;8.95;1.35;;;;;;;16.29;43.80;102283.81;5392819;26;20003;-64
2024/04/10 05:07:41;;;;;;;5.60;1.88;;;;;;;16.29;43.71;102282.94;5422379;26;20009;-64
2024/04/10 05:10:08;;;;;;;8.77;1.80;;;;;;;16.26;43.40;102278.66;5392694;26;20006;-64
2024/04/10 05:12:34;;;;;;;4.80;2.13;;;;;;;16.28;43.29;102286.63;5364075;26;20006;-64
2024/04/10 05:15:00;;;;;;;14.25;2.65;;;;;;;16.26;43.45;102288.59;5392990;26;20449;-64
2024/04/10 05:17:25;;;;;;;12.73;1.58;;;;;;;16.26;43.15;102296.72;5423961;26;19999;-64
2024/04/10 05:19:51;;;;;;;10.07;1.23;;;;;;;16.25;43.35;102293.16;5395096;26;19995;-65
2024/04/10 05:22:17;;;;;;;12.73;2.20;;;;;;;16.26;43.15;102307.53;5396451;26;20005;-64
2024/04/10 05:24:43;;;;;;;11.43;1.52;;;;;;;16.25;43.19;102306.69;5394216;26;19999;-64
2024/04/10 05:27:10;;;;;;;20.23;2.08;;;;;;;16.27;43.10;102309.28;5392592;26;20002;-64
2024/04/10 05:29:36;;;;;;;13.20;1.83;;;;;;;16.34;43.64;102313.16;5392765;26;20003;-64
2024/04/10 05:32:02;;;;;;;11.73;2.33;;;;;;;16.45;43.41;102323.91;5422558;26;20002;-64
2024/04/10 05:34:28;;;;;;;10.35;2.15;;;;;;;16.59;43.56;102329.03;5422265;26;20065;-64
2024/04/10 05:36:53;;;;;;;10.70;2.00;;;;;;;16.71;43.40;102328.00;5422568;26;20035;-64
2024/04/10 05:39:19;;;;;;;11.48;2.60;;;;;;;16.80;43.10;102332.63;5422452;26;20018;-64
2024/04/10 05:41:48;;;;;;;9.18;1.45;;;;;;;16.84;43.15;102335.91;5392410;26;20339;-64
2024/04/10 05:44:13;;;;;;;14.18;2.08;;;;;;;16.85;43.44;102341.19;5393075;26;20035;-68
2024/04/10 05:46:39;;;;;;;7.57;1.35;;;;;;;16.92;43.43;102348.78;5392813;26;20075;-67
2024/04/10 05:49:06;;;;;;;9.82;1.75;;;;;;;16.93;43.24;102358.59;5392706;26;20003;-66
2024/04/10 05:51:32;;;;;;;5.13;1.17;;;;;;;16.97;43.33;102363.66;5393094;26;20435;-65
2024/04/10 05:53:58;;;;;;;9.95;1.60;;;;;;;17.03;43.05;102367.66;5362615;26;19995;-65
2024/04/10 05:56:24;;;;;;;7.65;1.23;;;;;;;17.08;42.72;102381.66;5453495;26;19999;-64
2024/04/10 05:58:50;;;;;;;9.45;1.98;;;;;;;17.12;43.08;102372.25;5392374;26;20011;-64
2024/04/10 06:01:16;;;;;;;13.13;1.60;;;;;;;17.17;42.96;102380.88;5420382;26;20003;-64
2024/04/10 06:03:44;;;;;;;11.40;1.58;;;;;;;17.22;43.34;102382.19;5391726;26;20442;-64
2024/04/10 06:06:15;;;;;;;12.85;1.92;;;;;;;17.36;42.59;102392.63;5421687;26;20446;-64
2024/04/10 06:08:44;;;;;;;10.95;1.88;;;;;;;17.46;42.60;102396.28;5391727;26;20007;-65
2024/04/10 06:11:10;;;;;;;13.60;1.70;;;;;;;17.47;43.15;102402.56;5421539;26;20014;-64
2024/04/10 06:13:35;;;;;;;6.55;1.10;;;;;;;17.42;42.80;102396.66;5421436;26;20330;-64
2024/04/10 06:16:02;;;;;;;6.30;1.30;;;;;;;17.40;42.82;102401.34;5391834;26;20063;-64
2024/04/10 06:18:27;;;;;;;6.03;1.65;;;;;;;17.45;42.84;102407.22;5452844;26;20014;-64
2024/04/10 06:21:00;;;;;;;7.53;1.55;;;;;;;17.45;42.66;102410.78;5421005;26;19999;-64
2024/04/10 06:23:27;;;;;;;10.10;1.63;;;;;;;17.48;43.03;102415.09;5420781;26;20108;-66
2024/04/10 06:25:53;;;;;;;7.93;1.55;;;;;;;17.51;42.52;102417.53;5421110;26;20462;-63
2024/04/10 06:28:19;;;;;;;10.65;2.65;;;;;;;17.52;42.99;102421.97;5391501;26;20003;-64
2024/04/10 06:30:44;;;;;;;7.25;1.88;;;;;;;17.58;42.65;102426.03;5390734;26;19995;-63
2024/04/10 06:33:13;;;;;;;5.65;1.05;;;;;;;17.62;42.51;102428.31;5391323;26;20019;-64
2024/04/10 06:35:38;;;;;;;10.13;1.63;;;;;;;17.64;43.19;102442.59;5391223;26;19991;-66
2024/04/10 06:38:04;;;;;;;7.30;1.60;;;;;;;17.63;42.83;102446.28;5420506;26;20005;-63
2024/04/10 06:40:30;;;;;;;12.63;1.63;;;;;;;17.61;42.67;102442.88;5420663;26;19994;-64
2024/04/10 06:42:55;;;;;;;11.98;1.30;;;;;;;17.61;42.37;102451.00;5452573;26;20007;-65
2024/04/10 06:45:21;;;;;;;10.98;1.38;;;;;;;17.58;42.46;102448.56;5420895;26;19994;-64
2024/04/10 06:47:47;;;;;;;5.88;1.60;;;;;;;17.57;43.14;102457.66;5421455;26;20391;-64
2024/04/10 06:50:13;;;;;;;6.60;1.77;;;;;;;17.59;42.88;102454.84;5391284;26;20002;-64
2024/04/10 06:52:39;;;;;;;7.80;1.38;;;;;;;17.63;42.91;102467.97;5420493;26;19998;-64
2024/04/10 06:55:05;;;;;;;10.48;1.23;;;;;;;17.83;42.79;102460.81;5361699;26;19991;-64
2024/04/10 06:57:31;;;;;;;17.27;2.08;;;;;;;18.08;42.14;102460.31;5362040;26;19994;-64
2024/04/10 06:59:58;;;;;;;9.98;1.65;;;;;;;18.44;41.71;102454.28;5420589;26;20066;-66
2024/04/10 07:02:24;;;;;;;7.05;1.80;;;;;;;18.84;41.46;102461.47;5391673;26;20022;-65
2024/04/10 07:04:50;;;;;;;7.60;1.58;;;;;;;19.16;41.40;102459.31;5390829;26;20035;-65
2024/04/10 07:07:16;;;;;;;15.90;2.42;;;;;;;19.50;40.79;102465.13;5452442;26;20014;-65
2024/04/10 07:09:41;;;;;;;9.65;2.38;;;;;;;19.84;40.94;102469.03;5420603;26;19999;-64
2024/04/10 07:12:07;;;;;;;10.32;2.38;;;;;;;20.16;40.64;102469.44;5420294;26;20003;-64
2024/04/10 07:14:36;;;;;;;7.40;2.17;;;;;;;20.29;40.37;102474.59;5423604;26;19995;-64
2024/04/10 07:17:02;;;;;;;5.53;1.63;;;;;;;20.43;40.54;102478.66;5423849;26;20009;-65
2024/04/10 07:19:31;;;;;;;9.13;1.90;;;;;;;20.47;40.38;102480.03;5424026;26;20003;-64
2024/04/10 07:21:57;;;;;;;9.77;1.92;;;;;;;20.54;40.08;102473.84;5425492;26;20094;-64
2024/04/10 07:24:22;;;;;;;6.97;1.58;;;;;;;20.68;40.05;102483.34;5424205;26;20427;-65
2024/04/10 07:26:48;;;;;;;9.30;1.55;;;;;;;20.64;40.52;102488.25;5394786;26;20445;-70
2024/04/10 07:29:13;;;;;;;11.10;1.80;;;;;;;20.57;40.31;102487.16;5394819;26;20071;-66
2024/04/10 07:31:39;;;;;;;8.93;2.00;;;;;;;20.60;39.96;102494.16;5424441;26;20067;-65
2024/04/10 07:34:04;;;;;;;9.52;1.80;;;;;;;20.97;39.69;102494.88;5393373;26;19995;-65
2024/04/10 07:36:31;;;;;;;10.55;1.80;;;;;;;21.25;39.63;102501.97;5423471;26;19999;-64
2024/04/10 07:38:57;;;;;;;12.48;1.70;;;;;;;21.51;38.97;102495.69;5394157;26;19998;-64
2024/04/10 07:41:24;;;;;;;5.85;1.33;;;;;;;21.74;38.91;102502.34;5423244;26;20083;-65
2024/04/10 07:43:51;;;;;;;11.43;1.63;;;;;;;21.96;38.74;102499.94;5364759;26;20316;-65
2024/04/10 07:46:18;;;;;;;5.70;2.03;;;;;;;22.16;38.42;102497.81;5364467;26;20006;-66
2024/04/10 07:48:54;;;;;;;9.10;1.80;;;;;;;22.39;38.31;102500.81;5423559;26;20010;-65
2024/04/10 07:51:20;;;;;;;8.05;1.70;;;;;;;22.63;37.99;102506.34;5364839;26;20003;-65
2024/04/10 07:53:47;;;;;;;7.13;1.48;;;;;;;22.86;37.84;102501.13;5454848;26;20005;-65
2024/04/10 07:56:12;;;;;;;3.92;1.83;;;;;;;23.08;37.85;102495.84;5454823;26;20017;-65
2024/04/10 07:58:38;;;;;;;8.82;1.33;;;;;;;23.32;37.27;102503.19;5454643;26;19999;-65
2024/04/10 08:01:06;;;;;;;3.78;1.50;;;;;;;23.53;37.50;102499.97;5393547;26;20593;-68
2024/04/10 08:03:31;;;;;;;7.97;2.45;;;;;;;23.70;37.18;102501.66;5394063;26;20389;-68
2024/04/10 08:05:58;;;;;;;6.68;1.40;;;;;;;23.89;37.17;102500.41;5422897;26;20010;-68
2024/04/10 08:08:25;;;;;;;4.82;1.75;;;;;;;24.10;36.64;102512.50;5393150;26;20010;-70
2024/04/10 08:11:00;;;;;;;4.40;1.42;;;;;;;24.28;35.88;102513.16;5422689;26;20005;-69
2024/04/10 08:13:26;;;;;;;7.57;1.65;;;;;;;24.45;35.97;102502.97;5422549;26;19995;-69
2024/04/10 08:16:01;;;;;;;10.38;2.10;;;;;;;24.66;36.12;102500.44;5392870;26;20088;-69
2024/04/10 08:18:27;;;;;;;10.55;1.90;;;;;;;24.85;35.83;102505.47;5422697;26;19999;-69
2024/04/10 08:21:00;;;;;;;4.75;1.38;;;;;;;25.08;35.28;102510.09;5422920;26;20011;-69
2024/04/10 08:23:28;;;;;;;6.47;1.45;;;;;;;25.27;35.15;102509.59;5422568;26;20023;-69
2024/04/10 08:25:54;;;;;;;6.63;1.30;;;;;;;25.50;34.45;102518.69;5392256;26;20003;-68
2024/04/10 08:28:20;;;;;;;11.05;2.45;;;;;;;25.71;34.41;102527.06;5392487;26;20331;-69
2024/04/10 08:30:47;;;;;;;4.50;1.77;;;;;;;25.92;33.97;102516.22;5422962;26;20002;-69
2024/04/10 08:33:12;;;;;;;8.95;3.15;;;;;;;26.09;34.20;102522.38;5422790;26;20031;-69
2024/04/10 08:35:38;;;;;;;5.63;1.80;;;;;;;26.17;33.94;102521.44;5422303;26;20087;-69
2024/04/10 08:38:03;;;;;;;10.48;1.92;;;;;;;25.93;34.38;102533.53;5363219;26;20006;-71
2024/04/10 08:40:31;;;;;;;8.90;1.25;;;;;;;25.86;33.71;102532.56;5422704;26;20451;-70
2024/04/10 08:42:57;;;;;;;8.40;1.83;;;;;;;25.88;33.56;102531.34;5422524;26;19999;-69
2024/04/10 08:45:25;;;;;;;5.18;1.38;;;;;;;26.20;33.39;102534.81;5422363;26;20013;-69
2024/04/10 08:47:51;;;;;;;5.80;1.48;;;;;;;26.48;32.90;102538.56;5422934;26;20011;-69
2024/04/10 08:50:16;;;;;;;3.60;1.40;;;;;;;25.88;33.34;102530.53;5392988;26;20013;-69
2024/04/10 08:52:44;;;;;;;5.63;1.40;;;;;;;26.15;33.33;102546.38;5422274;26;20011;-68
2024/04/10 08:55:11;;;;;;;6.18;1.05;;;;;;;26.54;32.69;102546.91;5422053;26;20002;-69
2024/04/10 08:57:37;;;;;;;3.00;1.00;;;;;;;26.82;32.49;102541.56;5454032;26;20005;-70
2024/04/10 09:00:04;;;;;;;7.50;1.42;;;;;;;27.05;32.24;102541.41;5422692;26;20006;-69
2024/04/10 09:02:29;;;;;;;13.70;2.45;;;;;;;27.26;31.53;102555.16;5423151;26;19994;-69
2024/04/10 09:04:56;;;;;;;8.02;1.67;;;;;;;27.52;31.32;102554.59;5392299;26;20442;-68
2024/04/10 09:07:22;;;;;;;4.68;0.90;;;;;;;27.70;30.97;102560.44;5453705;26;20447;-69
2024/04/10 09:09:50;;;;;;;6.13;1.33;;;;;;;27.92;31.12;102562.09;5392629;26;19999;-70
2024/04/10 09:12:23;;;;;;;3.50;1.50;;;;;;;28.10;30.42;102556.97;5422788;26;20082;-66
2024/04/10 09:14:49;;;;;;;5.47;1.33;;;;;;;28.28;30.75;102556.44;5453660;26;20009;-66
2024/04/10 09:17:16;;;;;;;4.63;1.30;;;;;;;28.49;30.39;102569.25;5453736;26;20010;-66
2024/04/10 09:19:42;;;;;;;4.50;1.17;;;;;;;28.68;30.03;102568.53;5453639;26;20520;-66
2024/04/10 09:22:10;;;;;;;5.07;0.93;;;;;;;28.88;29.75;102552.91;5392416;26;20003;-66
2024/04/10 09:24:36;;;;;;;6.38;1.23;;;;;;;28.84;29.71;102562.63;5392501;26;20002;-66
2024/04/10 09:27:09;;;;;;;6.18;0.80;;;;;;;29.06;29.57;102561.44;5421935;26;20010;-66
2024/04/10 09:29:34;;;;;;;2.53;1.27;;;;;;;29.23;29.24;102548.13;5391637;26;20023;-66
2024/04/10 09:32:04;;;;;;;5.15;1.13;;;;;;;29.27;29.07;102569.59;5421900;26;20400;-67
2024/04/10 09:34:30;;;;;;;8.10;1.25;;;;;;;29.44;29.17;102568.13;5363180;26;20006;-67
2024/04/10 09:36:55;;;;;;;4.03;1.23;;;;;;;28.85;29.31;102572.63;5390317;26;20327;-66
2024/04/10 09:39:24;;;;;;;7.22;1.90;;;;;;;29.17;28.38;102569.13;5362609;26;19991;-67
2024/04/10 09:41:59;;;;;;;3.78;0.93;;;;;;;29.40;28.15;102566.81;5392300;26;20068;-67
2024/04/10 09:44:29;;;;;;;3.35;1.17;;;;;;;29.81;27.88;102572.19;5452923;26;20454;-68
2024/04/10 09:46:59;;;;;;;2.72;0.85;;;;;;;30.49;27.61;102572.69;5421376;26;20009;-68
2024/04/10 09:49:33;;;;;;;5.95;1.15;;;;;;;31.44;26.45;102569.84;5421799;26;20017;-67
2024/04/10 09:52:00;;;;;;;4.47;1.00;;;;;;;33.11;25.52;102573.19;5392119;26;20013;-67
2024/04/10 09:54:27;;;;;;;4.00;1.00;;;;;;;35.19;23.08;102571.44;5391772;26;20031;-66
2024/04/10 09:58:35;;;;;;;4.82;1.08;;;;;;;34.47;23.85;102559.06;5543884;25;20285;-67
2024/04/10 10:01:04;;;;;;;4.18;1.00;;;;;;;34.00;24.29;102560.19;5440332;26;20010;-66
2024/04/10 10:03:30;;;;;;;3.67;0.50;;;;;;;33.71;24.50;102568.41;5442396;26;20005;-66
2024/04/10 10:06:26;;;;;;;4.30;1.10;;;;;;;33.57;24.05;102561.38;5445983;26;20026;-66
2024/04/10 10:08:51;;;;;;;5.88;0.77;;;;;;;33.49;24.07;102560.84;5441828;26;20009;-67
2024/04/10 10:11:20;;;;;;;2.97;0.70;;;;;;;33.51;24.05;102556.75;5476314;26;20325;-67
2024/04/10 10:14:00;;;;;;;2.58;0.95;;;;;;;33.49;23.57;102567.28;5445498;26;20005;-67
2024/04/10 10:16:26;;;;;;;1.77;1.35;;;;;;;33.46;23.62;102564.97;5475754;26;20012;-67
2024/04/10 10:18:54;;;;;;;2.05;0.85;;;;;;;33.47;23.77;102566.66;5445682;26;20047;-67
2024/04/10 10:21:21;;;;;;;5.05;1.50;;;;;;;33.60;23.47;102563.69;5445866;26;20002;-68
2024/04/10 10:24:05;;;;;;;4.63;0.63;;;;;;;33.85;22.95;102564.31;5475688;26;19998;-66
2024/04/10 10:26:31;;;;;;;3.20;0.75;;;;;;;33.34;23.96;102566.84;5475875;26;20081;-67
2024/04/10 10:29:04;;;;;;;4.05;0.73;;;;;;;32.94;23.57;102572.16;5416135;26;20006;-67
2024/04/10 10:31:30;;;;;;;3.60;0.85;;;;;;;33.38;23.26;102580.06;5476230;26;20002;-67
2024/04/10 10:34:00;;;;;;;2.67;0.80;;;;;;;33.65;22.88;102577.72;5422201;26;20006;-68
2024/04/10 10:36:31;;;;;;;4.85;0.90;;;;;;;33.81;22.58;102584.53;5440581;26;20006;-67
2024/04/10 10:39:01;;;;;;;1.20;0.68;;;;;;;32.95;23.29;102589.63;5440419;26;20014;-67
2024/04/10 10:41:26;;;;;;;1.98;0.45;;;;;;;31.98;23.85;102582.19;5440282;26;19998;-67
2024/04/10 10:44:01;;;;;;;2.58;0.73;;;;;;;31.35;24.01;102587.81;5440173;26;19999;-67
2024/04/10 10:46:29;;;;;;;3.72;0.52;;;;;;;30.57;24.68;102595.44;5440280;26;20010;-67
2024/04/10 10:48:55;;;;;;;1.67;0.65;;;;;;;30.31;24.49;102594.66;5409870;26;20075;-67
2024/04/10 10:51:23;;;;;;;6.40;1.05;;;;;;;31.23;23.48;102588.75;5409451;26;20042;-67
2024/04/10 10:53:49;;;;;;;2.25;1.15;;;;;;;31.84;23.02;102600.03;5439673;26;20039;-67
2024/04/10 10:56:22;;;;;;;6.97;0.70;;;;;;;32.37;22.97;102604.00;5439086;26;19999;-67
2024/04/10 10:58:48;;;;;;;5.72;0.77;;;;;;;32.84;23.07;102589.38;5439114;26;20013;-67
2024/04/10 11:01:14;;;;;;;6.45;0.93;;;;;;;33.28;22.74;102588.13;5470682;26;20338;-67
2024/04/10 11:03:39;;;;;;;3.17;0.88;;;;;;;33.59;22.66;102586.16;5403117;26;20429;-67
2024/04/10 11:06:11;;;;;;;3.47;0.82;;;;;;;33.91;21.84;102579.19;5403188;26;20011;-67
2024/04/10 11:08:37;;;;;;;3.13;0.70;;;;;;;34.22;21.88;102584.41;5431304;26;20003;-67
2024/04/10 11:11:04;;;;;;;3.40;0.82;;;;;;;34.42;22.10;102601.53;5423434;26;19991;-67
2024/04/10 11:13:30;;;;;;;3.08;0.70;;;;;;;34.59;21.81;102582.19;5393592;26;20089;-67
2024/04/10 11:15:58;;;;;;;1.88;0.82;;;;;;;34.85;21.67;102587.19;5422897;26;19999;-68
2024/04/10 11:18:24;;;;;;;2.97;0.80;;;;;;;35.06;21.39;102589.31;5454691;26;19999;-67
2024/04/10 11:20:50;;;;;;;4.82;0.98;;;;;;;35.28;21.43;102595.03;5454640;26;20005;-69